sensor_id;sensor_type;location;lat;lon;timestamp;pressure;altitude;pressure_sealevel;temperature;humidity
64521;BME280;50896;46.714;17.322;2023-07-13T00:01:48;100145.19;;;24.42;94.20
64521;BME280;50896;46.714;17.322;2023-07-13T00:04:20;100152.22;;;24.37;96.30
64521;BME280;50896;46.714;17.322;2023-07-13T00:06:47;100158.72;;;24.31;96.90
64521;BME280;50896;46.714;17.322;2023-07-13T00:09:16;100141.56;;;24.31;97.46
64521;BME280;50896;46.714;17.322;2023-07-13T00:11:44;100150.56;;;24.31;98.57
64521;BME280;50896;46.714;17.322;2023-07-13T00:14:11;100153.81;;;24.28;100.00
64521;BME280;50896;46.714;17.322;2023-07-13T00:16:39;100156.00;;;24.31;100.00
64521;BME280;50896;46.714;17.322;2023-07-13T00:19:11;100135.56;;;24.23;100.00
64521;BME280;50896;46.714;17.322;2023-07-13T00:21:39;100127.88;;;24.10;100.00
64521;BME280;50896;46.714;17.322;2023-07-13T00:24:07;100122.13;;;24.06;100.00
64521;BME280;50896;46.714;17.322;2023-07-13T00:26:34;100132.97;;;24.06;100.00
64521;BME280;50896;46.714;17.322;2023-07-13T00:29:01;100128.34;;;24.02;100.00
64521;BME280;50896;46.714;17.322;2023-07-13T00:31:28;100128.59;;;23.73;100.00
64521;BME280;50896;46.714;17.322;2023-07-13T00:33:55;100112.25;;;23.68;100.00
64521;BME280;50896;46.714;17.322;2023-07-13T00:36:22;100093.81;;;23.70;100.00
64521;BME280;50896;46.714;17.322;2023-07-13T00:38:49;100091.06;;;23.65;100.00
64521;BME280;50896;46.714;17.322;2023-07-13T00:41:16;100095.47;;;23.71;100.00
64521;BME280;50896;46.714;17.322;2023-07-13T00:43:43;100093.38;;;23.78;100.00
64521;BME280;50896;46.714;17.322;2023-07-13T00:48:43;100102.19;;;23.91;100.00
64521;BME280;50896;46.714;17.322;2023-07-13T00:51:16;100084.97;;;23.80;100.00
64521;BME280;50896;46.714;17.322;2023-07-13T00:53:44;100068.34;;;23.71;100.00
64521;BME280;50896;46.714;17.322;2023-07-13T00:56:11;100078.00;;;23.62;100.00
64521;BME280;50896;46.714;17.322;2023-07-13T00:58:39;100066.22;;;23.46;100.00
64521;BME280;50896;46.714;17.322;2023-07-13T01:01:06;100060.72;;;23.41;100.00
64521;BME280;50896;46.714;17.322;2023-07-13T01:03:34;100055.56;;;23.39;100.00
64521;BME280;50896;46.714;17.322;2023-07-13T01:06:02;100051.47;;;23.36;100.00
64521;BME280;50896;46.714;17.322;2023-07-13T01:08:29;100055.50;;;23.34;100.00
64521;BME280;50896;46.714;17.322;2023-07-13T01:10:57;100044.31;;;23.25;100.00
64521;BME280;50896;46.714;17.322;2023-07-13T01:13:28;100035.84;;;23.21;100.00
64521;BME280;50896;46.714;17.322;2023-07-13T01:16:05;100035.84;;;23.21;100.00
64521;BME280;50896;46.714;17.322;2023-07-13T01:18:38;100020.91;;;23.19;100.00
64521;BME280;50896;46.714;17.322;2023-07-13T01:21:05;100010.31;;;23.17;100.00
64521;BME280;50896;46.714;17.322;2023-07-13T01:23:32;100019.97;;;23.08;100.00
64521;BME280;50896;46.714;17.322;2023-07-13T01:25:59;100019.91;;;23.03;100.00
64521;BME280;50896;46.714;17.322;2023-07-13T01:28:28;100020.91;;;22.97;100.00
64521;BME280;50896;46.714;17.322;2023-07-13T01:30:56;100017.28;;;22.86;100.00
64521;BME280;50896;46.714;17.322;2023-07-13T01:33:25;100022.38;;;22.82;100.00
64521;BME280;50896;46.714;17.322;2023-07-13T01:35:52;100017.91;;;22.71;100.00
64521;BME280;50896;46.714;17.322;2023-07-13T01:38:20;100010.75;;;22.60;100.00
64521;BME280;50896;46.714;17.322;2023-07-13T01:40:48;100012.81;;;22.52;100.00
64521;BME280;50896;46.714;17.322;2023-07-13T01:43:15;100023.91;;;22.51;100.00
64521;BME280;50896;46.714;17.322;2023-07-13T01:45:43;100002.72;;;22.48;100.00
64521;BME280;50896;46.714;17.322;2023-07-13T01:48:12;100004.63;;;22.47;100.00
64521;BME280;50896;46.714;17.322;2023-07-13T01:50:41;100000.84;;;22.48;100.00
64521;BME280;50896;46.714;17.322;2023-07-13T01:53:08;100002.25;;;22.51;100.00
64521;BME280;50896;46.714;17.322;2023-07-13T01:55:35;99998.06;;;22.43;100.00
64521;BME280;50896;46.714;17.322;2023-07-13T01:58:03;100010.97;;;22.36;100.00
64521;BME280;50896;46.714;17.322;2023-07-13T02:00:30;100013.56;;;22.31;100.00
64521;BME280;50896;46.714;17.322;2023-07-13T02:02:58;100007.59;;;22.29;100.00
64521;BME280;50896;46.714;17.322;2023-07-13T02:05:25;100020.81;;;22.25;100.00
64521;BME280;50896;46.714;17.322;2023-07-13T02:07:52;100024.84;;;22.23;100.00
64521;BME280;50896;46.714;17.322;2023-07-13T02:10:19;100027.06;;;22.26;100.00
64521;BME280;50896;46.714;17.322;2023-07-13T02:12:48;100021.41;;;22.27;100.00
64521;BME280;50896;46.714;17.322;2023-07-13T02:15:16;100016.47;;;22.24;100.00
64521;BME280;50896;46.714;17.322;2023-07-13T02:20:11;100032.81;;;22.12;100.00
64521;BME280;50896;46.714;17.322;2023-07-13T02:22:38;100045.88;;;21.98;100.00
64521;BME280;50896;46.714;17.322;2023-07-13T02:25:05;100044.72;;;21.94;100.00
64521;BME280;50896;46.714;17.322;2023-07-13T02:27:33;100051.78;;;21.95;100.00
64521;BME280;50896;46.714;17.322;2023-07-13T02:29:59;100069.63;;;21.79;100.00
64521;BME280;50896;46.714;17.322;2023-07-13T02:32:26;100060.63;;;21.74;100.00
64521;BME280;50896;46.714;17.322;2023-07-13T02:34:53;100054.91;;;21.70;100.00
64521;BME280;50896;46.714;17.322;2023-07-13T02:37:21;100055.94;;;21.69;100.00
64521;BME280;50896;46.714;17.322;2023-07-13T02:39:48;100064.63;;;21.71;100.00
64521;BME280;50896;46.714;17.322;2023-07-13T02:42:15;100063.31;;;21.74;100.00
64521;BME280;50896;46.714;17.322;2023-07-13T02:44:43;100075.03;;;21.79;100.00
64521;BME280;50896;46.714;17.322;2023-07-13T02:47:10;100060.97;;;21.77;100.00
64521;BME280;50896;46.714;17.322;2023-07-13T02:49:37;100068.59;;;21.80;100.00
64521;BME280;50896;46.714;17.322;2023-07-13T02:52:04;100083.41;;;21.78;100.00
64521;BME280;50896;46.714;17.322;2023-07-13T02:54:31;100084.41;;;21.72;100.00
64521;BME280;50896;46.714;17.322;2023-07-13T02:56:58;100082.25;;;21.74;100.00
64521;BME280;50896;46.714;17.322;2023-07-13T02:59:25;100096.88;;;21.73;100.00
64521;BME280;50896;46.714;17.322;2023-07-13T03:01:52;100149.59;;;21.58;100.00
64521;BME280;50896;46.714;17.322;2023-07-13T03:04:19;100238.88;;;21.46;100.00
64521;BME280;50896;46.714;17.322;2023-07-13T03:06:46;100341.16;;;21.26;100.00
64521;BME280;50896;46.714;17.322;2023-07-13T03:09:14;100356.66;;;21.07;100.00
64521;BME280;50896;46.714;17.322;2023-07-13T03:11:46;100388.69;;;20.79;100.00
64521;BME280;50896;46.714;17.322;2023-07-13T03:14:22;100401.94;;;20.51;100.00
64521;BME280;50896;46.714;17.322;2023-07-13T03:16:50;100439.78;;;20.32;100.00
64521;BME280;50896;46.714;17.322;2023-07-13T03:19:21;100467.03;;;19.87;100.00
64521;BME280;50896;46.714;17.322;2023-07-13T03:21:50;100485.78;;;19.75;100.00
64521;BME280;50896;46.714;17.322;2023-07-13T03:24:16;100485.91;;;19.61;100.00
64521;BME280;50896;46.714;17.322;2023-07-13T03:26:43;100518.47;;;19.60;100.00
64521;BME280;50896;46.714;17.322;2023-07-13T03:29:10;100523.13;;;19.46;100.00
64521;BME280;50896;46.714;17.322;2023-07-13T03:31:38;100535.75;;;19.52;100.00
64521;BME280;50896;46.714;17.322;2023-07-13T03:34:05;100526.47;;;19.48;100.00
64521;BME280;50896;46.714;17.322;2023-07-13T03:36:32;100427.84;;;19.59;100.00
64521;BME280;50896;46.714;17.322;2023-07-13T03:39:04;100397.88;;;19.67;100.00
64521;BME280;50896;46.714;17.322;2023-07-13T03:41:39;100372.25;;;19.83;100.00
64521;BME280;50896;46.714;17.322;2023-07-13T03:44:06;100302.34;;;19.82;100.00
64521;BME280;50896;46.714;17.322;2023-07-13T03:46:33;100237.16;;;20.15;100.00
64521;BME280;50896;46.714;17.322;2023-07-13T03:49:01;100219.94;;;20.28;100.00
64521;BME280;50896;46.714;17.322;2023-07-13T03:51:28;100138.25;;;20.21;100.00
64521;BME280;50896;46.714;17.322;2023-07-13T03:53:54;100155.97;;;20.17;100.00
64521;BME280;50896;46.714;17.322;2023-07-13T03:56:21;100143.97;;;20.12;100.00
64521;BME280;50896;46.714;17.322;2023-07-13T03:58:49;100193.84;;;20.10;100.00
64521;BME280;50896;46.714;17.322;2023-07-13T04:01:20;100197.44;;;20.04;100.00
64521;BME280;50896;46.714;17.322;2023-07-13T04:03:47;100237.25;;;20.08;100.00
64521;BME280;50896;46.714;17.322;2023-07-13T04:06:19;100275.59;;;20.10;100.00
64521;BME280;50896;46.714;17.322;2023-07-13T04:08:50;100326.78;;;20.17;100.00
64521;BME280;50896;46.714;17.322;2023-07-13T04:11:23;100362.84;;;20.23;100.00
64521;BME280;50896;46.714;17.322;2023-07-13T04:13:51;100406.09;;;20.35;100.00
64521;BME280;50896;46.714;17.322;2023-07-13T04:16:18;100437.03;;;20.51;100.00
64521;BME280;50896;46.714;17.322;2023-07-13T04:18:46;100442.81;;;20.54;100.00
64521;BME280;50896;46.714;17.322;2023-07-13T04:21:14;100428.00;;;20.57;100.00
64521;BME280;50896;46.714;17.322;2023-07-13T04:23:41;100419.47;;;20.60;100.00
64521;BME280;50896;46.714;17.322;2023-07-13T04:26:08;100367.69;;;20.63;100.00
64521;BME280;50896;46.714;17.322;2023-07-13T04:28:35;100316.09;;;20.71;100.00
64521;BME280;50896;46.714;17.322;2023-07-13T04:31:02;100285.78;;;20.69;100.00
64521;BME280;50896;46.714;17.322;2023-07-13T04:33:30;100258.66;;;20.76;100.00
64521;BME280;50896;46.714;17.322;2023-07-13T04:35:57;100216.63;;;20.80;100.00
64521;BME280;50896;46.714;17.322;2023-07-13T04:38:28;100137.78;;;20.83;100.00
64521;BME280;50896;46.714;17.322;2023-07-13T04:40:57;100065.88;;;20.94;100.00
64521;BME280;50896;46.714;17.322;2023-07-13T04:43:24;99859.91;;;20.87;100.00
64521;BME280;50896;46.714;17.322;2023-07-13T04:45:52;99815.13;;;20.91;100.00
64521;BME280;50896;46.714;17.322;2023-07-13T04:48:19;99827.38;;;20.81;100.00
64521;BME280;50896;46.714;17.322;2023-07-13T04:50:47;99914.09;;;20.97;100.00
64521;BME280;50896;46.714;17.322;2023-07-13T04:53:14;99973.66;;;21.02;100.00
64521;BME280;50896;46.714;17.322;2023-07-13T04:55:41;100035.56;;;21.04;100.00
64521;BME280;50896;46.714;17.322;2023-07-13T04:58:07;100080.00;;;20.96;100.00
64521;BME280;50896;46.714;17.322;2023-07-13T05:00:34;100113.34;;;20.90;100.00
64521;BME280;50896;46.714;17.322;2023-07-13T05:03:02;100075.81;;;20.76;100.00
64521;BME280;50896;46.714;17.322;2023-07-13T05:05:29;100078.41;;;20.71;100.00
64521;BME280;50896;46.714;17.322;2023-07-13T05:07:56;100108.44;;;20.63;100.00
64521;BME280;50896;46.714;17.322;2023-07-13T05:10:23;100087.31;;;20.60;100.00
64521;BME280;50896;46.714;17.322;2023-07-13T05:12:50;100091.06;;;20.59;100.00
64521;BME280;50896;46.714;17.322;2023-07-13T05:15:18;100096.09;;;20.67;100.00
64521;BME280;50896;46.714;17.322;2023-07-13T05:17:49;100091.44;;;20.62;100.00
64521;BME280;50896;46.714;17.322;2023-07-13T05:20:17;100111.38;;;20.61;100.00
64521;BME280;50896;46.714;17.322;2023-07-13T05:22:45;100151.97;;;20.66;100.00
64521;BME280;50896;46.714;17.322;2023-07-13T05:25:15;100168.91;;;20.86;100.00
64521;BME280;50896;46.714;17.322;2023-07-13T05:27:42;100183.84;;;20.88;100.00
64521;BME280;50896;46.714;17.322;2023-07-13T05:30:13;100190.66;;;20.91;100.00
64521;BME280;50896;46.714;17.322;2023-07-13T05:32:40;100221.88;;;20.98;100.00
64521;BME280;50896;46.714;17.322;2023-07-13T05:35:08;100219.75;;;21.12;100.00
64521;BME280;50896;46.714;17.322;2023-07-13T05:37:35;100237.50;;;21.20;100.00
64521;BME280;50896;46.714;17.322;2023-07-13T05:40:01;100247.13;;;21.28;100.00
64521;BME280;50896;46.714;17.322;2023-07-13T05:42:28;100241.84;;;21.33;100.00
64521;BME280;50896;46.714;17.322;2023-07-13T05:44:57;100253.25;;;21.35;100.00
64521;BME280;50896;46.714;17.322;2023-07-13T05:47:24;100257.44;;;21.43;100.00
64521;BME280;50896;46.714;17.322;2023-07-13T05:49:51;100258.16;;;21.38;100.00
64521;BME280;50896;46.714;17.322;2023-07-13T05:52:18;100256.75;;;21.36;100.00
64521;BME280;50896;46.714;17.322;2023-07-13T05:54:45;100261.69;;;21.39;100.00
64521;BME280;50896;46.714;17.322;2023-07-13T05:57:11;100265.44;;;21.38;100.00
64521;BME280;50896;46.714;17.322;2023-07-13T05:59:38;100262.75;;;21.38;100.00
64521;BME280;50896;46.714;17.322;2023-07-13T06:02:05;100268.03;;;21.44;100.00
64521;BME280;50896;46.714;17.322;2023-07-13T06:04:32;100281.09;;;21.36;100.00
64521;BME280;50896;46.714;17.322;2023-07-13T06:06:59;100284.16;;;21.39;100.00
64521;BME280;50896;46.714;17.322;2023-07-13T06:09:26;100285.09;;;21.45;100.00
64521;BME280;50896;46.714;17.322;2023-07-13T06:11:53;100291.88;;;21.47;100.00
64521;BME280;50896;46.714;17.322;2023-07-13T06:14:20;100296.72;;;21.45;100.00
64521;BME280;50896;46.714;17.322;2023-07-13T06:16:47;100295.75;;;21.51;100.00
64521;BME280;50896;46.714;17.322;2023-07-13T06:19:13;100287.31;;;21.48;100.00
64521;BME280;50896;46.714;17.322;2023-07-13T06:21:40;100293.91;;;21.40;100.00
64521;BME280;50896;46.714;17.322;2023-07-13T06:24:07;100302.50;;;21.37;100.00
64521;BME280;50896;46.714;17.322;2023-07-13T06:26:34;100303.91;;;21.40;100.00
64521;BME280;50896;46.714;17.322;2023-07-13T06:29:00;100308.59;;;21.44;100.00
64521;BME280;50896;46.714;17.322;2023-07-13T06:31:27;100311.88;;;21.46;100.00
64521;BME280;50896;46.714;17.322;2023-07-13T06:33:54;100313.44;;;21.54;100.00
64521;BME280;50896;46.714;17.322;2023-07-13T06:36:21;100312.63;;;21.54;100.00
64521;BME280;50896;46.714;17.322;2023-07-13T06:38:48;100319.75;;;21.60;100.00
64521;BME280;50896;46.714;17.322;2023-07-13T06:41:15;100327.19;;;21.64;100.00
64521;BME280;50896;46.714;17.322;2023-07-13T06:43:41;100327.63;;;21.73;100.00
64521;BME280;50896;46.714;17.322;2023-07-13T06:46:09;100330.44;;;21.78;100.00
64521;BME280;50896;46.714;17.322;2023-07-13T06:48:36;100338.09;;;21.81;100.00
64521;BME280;50896;46.714;17.322;2023-07-13T06:51:03;100346.09;;;21.76;100.00
64521;BME280;50896;46.714;17.322;2023-07-13T06:53:30;100352.56;;;21.75;100.00
64521;BME280;50896;46.714;17.322;2023-07-13T06:55:57;100344.91;;;21.84;100.00
64521;BME280;50896;46.714;17.322;2023-07-13T06:58:24;100340.06;;;21.98;100.00
64521;BME280;50896;46.714;17.322;2023-07-13T07:00:52;100338.06;;;22.22;100.00
64521;BME280;50896;46.714;17.322;2023-07-13T07:03:19;100347.94;;;22.40;100.00
64521;BME280;50896;46.714;17.322;2023-07-13T07:05:46;100339.25;;;22.55;100.00
64521;BME280;50896;46.714;17.322;2023-07-13T07:08:13;100348.81;;;22.75;100.00
64521;BME280;50896;46.714;17.322;2023-07-13T07:10:40;100343.00;;;22.83;100.00
64521;BME280;50896;46.714;17.322;2023-07-13T07:13:07;100342.25;;;22.87;100.00
64521;BME280;50896;46.714;17.322;2023-07-13T07:15:34;100347.81;;;22.98;100.00
64521;BME280;50896;46.714;17.322;2023-07-13T07:18:01;100343.63;;;23.07;100.00
64521;BME280;50896;46.714;17.322;2023-07-13T07:20:29;100348.34;;;23.12;100.00
64521;BME280;50896;46.714;17.322;2023-07-13T07:22:57;100348.28;;;23.24;100.00
64521;BME280;50896;46.714;17.322;2023-07-13T07:25:24;100342.59;;;23.25;100.00
64521;BME280;50896;46.714;17.322;2023-07-13T07:27:51;100347.47;;;23.45;100.00
64521;BME280;50896;46.714;17.322;2023-07-13T07:30:20;100342.06;;;23.45;100.00
64521;BME280;50896;46.714;17.322;2023-07-13T07:32:50;100351.53;;;23.65;100.00
64521;BME280;50896;46.714;17.322;2023-07-13T07:35:20;100355.66;;;23.67;100.00
64521;BME280;50896;46.714;17.322;2023-07-13T07:37:47;100362.59;;;23.80;100.00
64521;BME280;50896;46.714;17.322;2023-07-13T07:40:17;100356.50;;;23.90;100.00
64521;BME280;50896;46.714;17.322;2023-07-13T07:42:47;100347.72;;;23.83;100.00
64521;BME280;50896;46.714;17.322;2023-07-13T07:45:14;100348.91;;;23.70;100.00
64521;BME280;50896;46.714;17.322;2023-07-13T07:47:41;100362.47;;;23.70;100.00
64521;BME280;50896;46.714;17.322;2023-07-13T07:50:09;100368.78;;;23.76;100.00
64521;BME280;50896;46.714;17.322;2023-07-13T07:52:36;100361.88;;;23.85;100.00
64521;BME280;50896;46.714;17.322;2023-07-13T07:55:04;100375.19;;;23.86;100.00
64521;BME280;50896;46.714;17.322;2023-07-13T07:57:35;100371.88;;;23.84;100.00
64521;BME280;50896;46.714;17.322;2023-07-13T08:00:06;100369.16;;;23.84;100.00
64521;BME280;50896;46.714;17.322;2023-07-13T08:02:41;100359.34;;;23.78;100.00
64521;BME280;50896;46.714;17.322;2023-07-13T08:05:29;100367.78;;;23.82;100.00
64521;BME280;50896;46.714;17.322;2023-07-13T08:07:58;100369.44;;;23.83;100.00
64521;BME280;50896;46.714;17.322;2023-07-13T08:10:25;100364.66;;;23.90;100.00
64521;BME280;50896;46.714;17.322;2023-07-13T08:12:52;100362.13;;;23.83;100.00
64521;BME280;50896;46.714;17.322;2023-07-13T08:15:22;100356.50;;;23.90;100.00
64521;BME280;50896;46.714;17.322;2023-07-13T08:17:49;100365.06;;;23.99;100.00
64521;BME280;50896;46.714;17.322;2023-07-13T08:20:16;100361.00;;;24.01;100.00
64521;BME280;50896;46.714;17.322;2023-07-13T08:22:43;100366.84;;;24.15;100.00
64521;BME280;50896;46.714;17.322;2023-07-13T08:25:09;100358.38;;;24.34;100.00
64521;BME280;50896;46.714;17.322;2023-07-13T08:27:36;100359.94;;;24.52;100.00
64521;BME280;50896;46.714;17.322;2023-07-13T08:30:03;100355.53;;;24.73;100.00
64521;BME280;50896;46.714;17.322;2023-07-13T08:32:32;100367.81;;;24.76;100.00
64521;BME280;50896;46.714;17.322;2023-07-13T08:34:59;100368.56;;;24.49;100.00
64521;BME280;50896;46.714;17.322;2023-07-13T08:37:26;100375.09;;;24.70;100.00
64521;BME280;50896;46.714;17.322;2023-07-13T08:39:52;100366.41;;;24.73;100.00
64521;BME280;50896;46.714;17.322;2023-07-13T08:42:33;100369.22;;;24.83;100.00
64521;BME280;50896;46.714;17.322;2023-07-13T08:48:02;100362.75;;;24.89;100.00
64521;BME280;50896;46.714;17.322;2023-07-13T08:50:37;100363.25;;;25.19;100.00
64521;BME280;50896;46.714;17.322;2023-07-13T08:53:32;100372.19;;;25.47;100.00
64521;BME280;50896;46.714;17.322;2023-07-13T08:56:00;100377.63;;;25.52;100.00
64521;BME280;50896;46.714;17.322;2023-07-13T08:58:28;100371.34;;;25.46;100.00
64521;BME280;50896;46.714;17.322;2023-07-13T09:01:12;100380.63;;;25.50;100.00
64521;BME280;50896;46.714;17.322;2023-07-13T09:04:13;100388.88;;;25.28;100.00
64521;BME280;50896;46.714;17.322;2023-07-13T09:11:56;100380.50;;;25.83;100.00
64521;BME280;50896;46.714;17.322;2023-07-13T09:17:12;100367.84;;;26.04;100.00
64521;BME280;50896;46.714;17.322;2023-07-13T09:19:40;100367.31;;;26.07;100.00
64521;BME280;50896;46.714;17.322;2023-07-13T09:22:14;100364.34;;;26.19;100.00
64521;BME280;50896;46.714;17.322;2023-07-13T09:24:54;100372.81;;;26.27;100.00
64521;BME280;50896;46.714;17.322;2023-07-13T09:27:30;100377.75;;;26.31;100.00
64521;BME280;50896;46.714;17.322;2023-07-13T09:30:33;100393.81;;;26.32;100.00
64521;BME280;50896;46.714;17.322;2023-07-13T09:32:58;100386.75;;;26.36;100.00
64521;BME280;50896;46.714;17.322;2023-07-13T09:35:27;100383.78;;;26.53;100.00
64521;BME280;50896;46.714;17.322;2023-07-13T09:38:15;100373.19;;;26.67;100.00
64521;BME280;50896;46.714;17.322;2023-07-13T09:40:59;100372.34;;;26.61;100.00
64521;BME280;50896;46.714;17.322;2023-07-13T09:43:29;100368.25;;;26.54;100.00
64521;BME280;50896;46.714;17.322;2023-07-13T09:45:56;100373.69;;;26.54;100.00
64521;BME280;50896;46.714;17.322;2023-07-13T09:48:23;100375.31;;;26.39;100.00
64521;BME280;50896;46.714;17.322;2023-07-13T09:50:54;100383.78;;;26.43;100.00
64521;BME280;50896;46.714;17.322;2023-07-13T09:53:23;100373.94;;;26.37;100.00
64521;BME280;50896;46.714;17.322;2023-07-13T09:55:50;100378.34;;;26.53;100.00
64521;BME280;50896;46.714;17.322;2023-07-13T09:58:22;100381.34;;;26.57;100.00
64521;BME280;50896;46.714;17.322;2023-07-13T10:01:01;100374.78;;;26.58;100.00
64521;BME280;50896;46.714;17.322;2023-07-13T10:03:35;100371.81;;;26.65;100.00
64521;BME280;50896;46.714;17.322;2023-07-13T10:06:13;100359.31;;;26.84;100.00
64521;BME280;50896;46.714;17.322;2023-07-13T10:08:41;100351.94;;;26.90;100.00
64521;BME280;50896;46.714;17.322;2023-07-13T10:13:58;100354.41;;;26.97;100.00
64521;BME280;50896;46.714;17.322;2023-07-13T10:16:31;100346.50;;;27.00;100.00
64521;BME280;50896;46.714;17.322;2023-07-13T10:19:09;100340.75;;;27.07;100.00
64521;BME280;50896;46.714;17.322;2023-07-13T10:21:46;100336.41;;;27.06;100.00
64521;BME280;50896;46.714;17.322;2023-07-13T10:24:19;100335.84;;;26.99;100.00
64521;BME280;50896;46.714;17.322;2023-07-13T10:27:01;100333.66;;;26.95;100.00
64521;BME280;50896;46.714;17.322;2023-07-13T10:29:35;100326.59;;;26.89;100.00
64521;BME280;50896;46.714;17.322;2023-07-13T10:32:09;100324.41;;;26.86;100.00
64521;BME280;50896;46.714;17.322;2023-07-13T10:34:39;100318.41;;;26.79;100.00
64521;BME280;50896;46.714;17.322;2023-07-13T10:37:18;100325.50;;;26.80;100.00
64521;BME280;50896;46.714;17.322;2023-07-13T10:39:47;100319.47;;;26.83;100.00
64521;BME280;50896;46.714;17.322;2023-07-13T10:42:23;100337.50;;;26.89;100.00
64521;BME280;50896;46.714;17.322;2023-07-13T10:44:52;100344.31;;;26.92;100.00
64521;BME280;50896;46.714;17.322;2023-07-13T10:47:19;100346.75;;;27.04;100.00
64521;BME280;50896;46.714;17.322;2023-07-13T10:49:47;100345.94;;;27.03;100.00
64521;BME280;50896;46.714;17.322;2023-07-13T10:52:42;100329.31;;;27.05;100.00
64521;BME280;50896;46.714;17.322;2023-07-13T11:03:31;100342.91;;;27.41;100.00
64521;BME280;50896;46.714;17.322;2023-07-13T11:08:52;100341.50;;;27.54;100.00
64521;BME280;50896;46.714;17.322;2023-07-13T11:14:00;100342.34;;;27.49;100.00
64521;BME280;50896;46.714;17.322;2023-07-13T11:16:43;100348.91;;;27.53;100.00
64521;BME280;50896;46.714;17.322;2023-07-13T11:24:59;100346.34;;;27.77;100.00
64521;BME280;50896;46.714;17.322;2023-07-13T11:27:34;100330.25;;;27.76;100.00
64521;BME280;50896;46.714;17.322;2023-07-13T11:35:36;100335.63;;;27.96;100.00
64521;BME280;50896;46.714;17.322;2023-07-13T11:38:14;100320.84;;;28.08;100.00
64521;BME280;50896;46.714;17.322;2023-07-13T11:40:45;100325.38;;;28.23;100.00
64521;BME280;50896;46.714;17.322;2023-07-13T11:43:21;100334.34;;;28.28;100.00
64521;BME280;50896;46.714;17.322;2023-07-13T11:45:52;100334.28;;;28.44;100.00
64521;BME280;50896;46.714;17.322;2023-07-13T11:48:23;100323.28;;;28.49;100.00
64521;BME280;50896;46.714;17.322;2023-07-13T11:51:03;100334.25;;;27.99;100.00
64521;BME280;50896;46.714;17.322;2023-07-13T11:53:45;100347.78;;;28.25;100.00
64521;BME280;50896;46.714;17.322;2023-07-13T11:56:13;100336.25;;;28.33;100.00
64521;BME280;50896;46.714;17.322;2023-07-13T11:58:40;100341.81;;;28.62;100.00
64521;BME280;50896;46.714;17.322;2023-07-13T12:01:26;100341.66;;;28.83;100.00
64521;BME280;50896;46.714;17.322;2023-07-13T12:04:00;100346.59;;;28.81;100.00
64521;BME280;50896;46.714;17.322;2023-07-13T12:06:28;100328.50;;;28.85;100.00
64521;BME280;50896;46.714;17.322;2023-07-13T12:08:59;100323.28;;;28.89;100.00
64521;BME280;50896;46.714;17.322;2023-07-13T12:11:27;100309.75;;;28.73;100.00
64521;BME280;50896;46.714;17.322;2023-07-13T12:13:54;100305.03;;;28.79;100.00
64521;BME280;50896;46.714;17.322;2023-07-13T12:16:32;100297.59;;;28.85;100.00
64521;BME280;50896;46.714;17.322;2023-07-13T12:19:02;100297.31;;;28.86;100.00
64521;BME280;50896;46.714;17.322;2023-07-13T12:21:33;100297.69;;;28.74;100.00
64521;BME280;50896;46.714;17.322;2023-07-13T12:24:01;100292.28;;;28.69;100.00
64521;BME280;50896;46.714;17.322;2023-07-13T12:26:31;100306.28;;;28.62;100.00
64521;BME280;50896;46.714;17.322;2023-07-13T12:29:00;100304.63;;;28.56;100.00
64521;BME280;50896;46.714;17.322;2023-07-13T12:34:05;100299.28;;;28.41;100.00
64521;BME280;50896;46.714;17.322;2023-07-13T12:36:36;100290.53;;;28.44;100.00
64521;BME280;50896;46.714;17.322;2023-07-13T12:39:12;100284.84;;;28.35;100.00
64521;BME280;50896;46.714;17.322;2023-07-13T12:41:40;100279.16;;;28.32;100.00
64521;BME280;50896;46.714;17.322;2023-07-13T12:44:11;100274.22;;;28.28;100.00
64521;BME280;50896;46.714;17.322;2023-07-13T12:46:39;100271.00;;;28.21;100.00
64521;BME280;50896;46.714;17.322;2023-07-13T12:49:07;100265.03;;;28.14;100.00
64521;BME280;50896;46.714;17.322;2023-07-13T12:51:50;100266.22;;;28.03;100.00
64521;BME280;50896;46.714;17.322;2023-07-13T12:54:19;100283.19;;;28.00;100.00
64521;BME280;50896;46.714;17.322;2023-07-13T12:56:49;100289.19;;;27.96;100.00
64521;BME280;50896;46.714;17.322;2023-07-13T12:59:21;100286.97;;;27.93;100.00
64521;BME280;50896;46.714;17.322;2023-07-13T13:01:49;100267.09;;;27.88;100.00
64521;BME280;50896;46.714;17.322;2023-07-13T13:04:17;100263.84;;;27.80;100.00
64521;BME280;50896;46.714;17.322;2023-07-13T13:06:49;100257.03;;;27.78;100.00
64521;BME280;50896;46.714;17.322;2023-07-13T13:09:27;100246.69;;;27.70;100.00
64521;BME280;50896;46.714;17.322;2023-07-13T13:11:54;100245.09;;;27.63;100.00
64521;BME280;50896;46.714;17.322;2023-07-13T13:14:21;100250.06;;;27.56;100.00
64521;BME280;50896;46.714;17.322;2023-07-13T13:16:49;100274.13;;;27.44;100.00
64521;BME280;50896;46.714;17.322;2023-07-13T13:19:20;100262.38;;;27.33;100.00
64521;BME280;50896;46.714;17.322;2023-07-13T13:21:49;100256.97;;;27.18;100.00
64521;BME280;50896;46.714;17.322;2023-07-13T13:24:24;100261.34;;;27.14;100.00
64521;BME280;50896;46.714;17.322;2023-07-13T13:26:53;100274.75;;;27.00;100.00
64521;BME280;50896;46.714;17.322;2023-07-13T13:29:22;100310.78;;;26.81;100.00